Terminal Aerodrome Forecast
Issued by NWS

Home | Current Version | Previous Version | Text Only | Print | Product List | Glossary On
Versions: 1 2 3 4 5 6 7 8 9 10 11 12 13 14
000
FTUS43 KDVN 291700
TAFCID
TAF
KCID 291720Z 2918/3018 30010KT P6SM BKN050
     FM300200 31004KT P6SM SCT060
     FM301000 31004KT 6SM BR FEW010
     FM301500 31005KT P6SM FEW060=

USA.gov is the U.S. government's official web portal to all federal, state and local government web resources and services.